sensor_id;sensor_type;location;lat;lon;timestamp;temperature;humidity
6496;DHT22;3281;47.658;9.166;2022-12-18T00:02:03;-0.10;1.00
6496;DHT22;3281;47.658;9.166;2022-12-18T00:04:29;-0.20;1.00
6496;DHT22;3281;47.658;9.166;2022-12-18T00:06:56;-0.10;1.00
6496;DHT22;3281;47.658;9.166;2022-12-18T00:09:24;-0.10;1.00
6496;DHT22;3281;47.658;9.166;2022-12-18T00:11:51;-0.10;1.00
6496;DHT22;3281;47.658;9.166;2022-12-18T00:14:19;-0.20;1.00
6496;DHT22;3281;47.658;9.166;2022-12-18T00:16:46;-0.30;1.00
6496;DHT22;3281;47.658;9.166;2022-12-18T00:19:13;-0.20;1.00
6496;DHT22;3281;47.658;9.166;2022-12-18T00:21:41;-0.30;1.00
6496;DHT22;3281;47.658;9.166;2022-12-18T00:24:09;-0.30;1.00
6496;DHT22;3281;47.658;9.166;2022-12-18T00:26:37;-0.50;1.00
6496;DHT22;3281;47.658;9.166;2022-12-18T00:29:07;-0.40;1.00
6496;DHT22;3281;47.658;9.166;2022-12-18T00:31:38;-0.30;1.00
6496;DHT22;3281;47.658;9.166;2022-12-18T00:34:04;-0.40;1.00
6496;DHT22;3281;47.658;9.166;2022-12-18T00:36:33;-0.50;1.00
6496;DHT22;3281;47.658;9.166;2022-12-18T00:39:02;-0.40;1.00
6496;DHT22;3281;47.658;9.166;2022-12-18T00:41:29;-0.40;1.00
6496;DHT22;3281;47.658;9.166;2022-12-18T00:44:14;-0.30;1.00
6496;DHT22;3281;47.658;9.166;2022-12-18T00:46:43;-0.30;1.00
6496;DHT22;3281;47.658;9.166;2022-12-18T00:49:14;-0.30;1.00
6496;DHT22;3281;47.658;9.166;2022-12-18T00:51:40;-0.20;1.00
6496;DHT22;3281;47.658;9.166;2022-12-18T00:54:07;-0.40;1.00
6496;DHT22;3281;47.658;9.166;2022-12-18T00:56:35;-0.60;1.00
6496;DHT22;3281;47.658;9.166;2022-12-18T00:59:02;-0.60;1.00
6496;DHT22;3281;47.658;9.166;2022-12-18T01:01:29;-0.60;1.00
6496;DHT22;3281;47.658;9.166;2022-12-18T01:04:01;-0.50;1.00
6496;DHT22;3281;47.658;9.166;2022-12-18T01:06:28;-0.40;1.00
6496;DHT22;3281;47.658;9.166;2022-12-18T01:08:54;-0.50;1.00
6496;DHT22;3281;47.658;9.166;2022-12-18T01:11:22;-0.40;1.00
6496;DHT22;3281;47.658;9.166;2022-12-18T01:13:49;-0.30;1.00
6496;DHT22;3281;47.658;9.166;2022-12-18T01:16:17;-0.30;1.00
6496;DHT22;3281;47.658;9.166;2022-12-18T01:18:45;-0.40;1.00
6496;DHT22;3281;47.658;9.166;2022-12-18T01:21:14;-0.50;1.00
6496;DHT22;3281;47.658;9.166;2022-12-18T01:23:51;-0.50;1.00
6496;DHT22;3281;47.658;9.166;2022-12-18T01:26:19;-0.50;1.00
6496;DHT22;3281;47.658;9.166;2022-12-18T01:28:45;-0.40;1.00
6496;DHT22;3281;47.658;9.166;2022-12-18T01:31:15;-0.30;1.00
6496;DHT22;3281;47.658;9.166;2022-12-18T01:33:43;-0.30;1.00
6496;DHT22;3281;47.658;9.166;2022-12-18T01:36:17;-0.30;1.00
6496;DHT22;3281;47.658;9.166;2022-12-18T01:38:44;-0.30;1.00
6496;DHT22;3281;47.658;9.166;2022-12-18T01:41:11;-0.20;1.00
6496;DHT22;3281;47.658;9.166;2022-12-18T01:43:50;-0.30;1.00
6496;DHT22;3281;47.658;9.166;2022-12-18T01:46:19;-0.40;1.00
6496;DHT22;3281;47.658;9.166;2022-12-18T01:48:52;-0.40;1.00
6496;DHT22;3281;47.658;9.166;2022-12-18T01:51:21;-0.40;1.00
6496;DHT22;3281;47.658;9.166;2022-12-18T01:53:49;-0.20;1.00
6496;DHT22;3281;47.658;9.166;2022-12-18T01:56:18;-0.20;1.00
6496;DHT22;3281;47.658;9.166;2022-12-18T01:58:52;-0.20;1.00
6496;DHT22;3281;47.658;9.166;2022-12-18T02:01:21;-0.30;1.00
6496;DHT22;3281;47.658;9.166;2022-12-18T02:03:49;-0.30;1.00
6496;DHT22;3281;47.658;9.166;2022-12-18T02:06:18;-0.40;1.00
6496;DHT22;3281;47.658;9.166;2022-12-18T02:08:57;-0.40;1.00
6496;DHT22;3281;47.658;9.166;2022-12-18T02:11:36;-0.20;1.00
6496;DHT22;3281;47.658;9.166;2022-12-18T02:14:12;-0.20;1.00
6496;DHT22;3281;47.658;9.166;2022-12-18T02:16:46;-0.30;1.00
6496;DHT22;3281;47.658;9.166;2022-12-18T02:19:24;-0.20;1.00
6496;DHT22;3281;47.658;9.166;2022-12-18T02:22:01;-0.20;1.00
6496;DHT22;3281;47.658;9.166;2022-12-18T02:24:37;-0.30;1.00
6496;DHT22;3281;47.658;9.166;2022-12-18T02:27:10;-0.30;1.00
6496;DHT22;3281;47.658;9.166;2022-12-18T02:29:40;-0.10;1.00
6496;DHT22;3281;47.658;9.166;2022-12-18T02:32:12;-0.20;1.00
6496;DHT22;3281;47.658;9.166;2022-12-18T02:34:40;-0.10;1.00
6496;DHT22;3281;47.658;9.166;2022-12-18T02:37:11;-0.20;1.00
6496;DHT22;3281;47.658;9.166;2022-12-18T02:39:41;-0.20;1.00
6496;DHT22;3281;47.658;9.166;2022-12-18T02:42:10;-0.10;1.00
6496;DHT22;3281;47.658;9.166;2022-12-18T02:44:43;-0.20;1.00
6496;DHT22;3281;47.658;9.166;2022-12-18T02:47:10;-0.20;1.00
6496;DHT22;3281;47.658;9.166;2022-12-18T02:49:47;-0.20;1.00
6496;DHT22;3281;47.658;9.166;2022-12-18T02:52:21;-0.30;1.00
6496;DHT22;3281;47.658;9.166;2022-12-18T02:54:57;-0.20;1.00
6496;DHT22;3281;47.658;9.166;2022-12-18T02:57:33;-0.20;1.00
6496;DHT22;3281;47.658;9.166;2022-12-18T03:00:04;-0.30;1.00
6496;DHT22;3281;47.658;9.166;2022-12-18T03:02:37;-0.20;1.00
6496;DHT22;3281;47.658;9.166;2022-12-18T03:05:10;-0.10;1.00
6496;DHT22;3281;47.658;9.166;2022-12-18T03:07:42;-0.10;1.00
6496;DHT22;3281;47.658;9.166;2022-12-18T03:10:13;-0.20;1.00
6496;DHT22;3281;47.658;9.166;2022-12-18T03:12:45;-0.30;1.00
6496;DHT22;3281;47.658;9.166;2022-12-18T03:15:16;-0.40;1.00
6496;DHT22;3281;47.658;9.166;2022-12-18T03:17:48;-0.40;1.00
6496;DHT22;3281;47.658;9.166;2022-12-18T03:20:20;-0.30;1.00
6496;DHT22;3281;47.658;9.166;2022-12-18T03:22:51;-0.30;1.00
6496;DHT22;3281;47.658;9.166;2022-12-18T03:25:20;-0.40;1.00
6496;DHT22;3281;47.658;9.166;2022-12-18T03:27:52;-0.40;1.00
6496;DHT22;3281;47.658;9.166;2022-12-18T03:30:23;-0.40;1.00
6496;DHT22;3281;47.658;9.166;2022-12-18T03:32:53;-0.30;1.00
6496;DHT22;3281;47.658;9.166;2022-12-18T03:35:26;-0.30;1.00
6496;DHT22;3281;47.658;9.166;2022-12-18T03:37:53;-0.40;1.00
6496;DHT22;3281;47.658;9.166;2022-12-18T03:40:23;-0.40;1.00
6496;DHT22;3281;47.658;9.166;2022-12-18T03:42:58;-0.40;1.00
6496;DHT22;3281;47.658;9.166;2022-12-18T03:45:31;-0.40;1.00
6496;DHT22;3281;47.658;9.166;2022-12-18T03:48:01;-0.40;1.00
6496;DHT22;3281;47.658;9.166;2022-12-18T03:50:37;-0.50;1.00
6496;DHT22;3281;47.658;9.166;2022-12-18T03:53:18;-0.30;1.00
6496;DHT22;3281;47.658;9.166;2022-12-18T03:55:50;-0.20;1.00
6496;DHT22;3281;47.658;9.166;2022-12-18T03:58:20;-0.30;1.00
6496;DHT22;3281;47.658;9.166;2022-12-18T04:00:50;-0.40;1.00
6496;DHT22;3281;47.658;9.166;2022-12-18T04:03:19;-0.40;1.00
6496;DHT22;3281;47.658;9.166;2022-12-18T04:05:48;-0.60;1.00
6496;DHT22;3281;47.658;9.166;2022-12-18T04:08:16;-0.50;1.00
6496;DHT22;3281;47.658;9.166;2022-12-18T04:10:43;-0.50;1.00
6496;DHT22;3281;47.658;9.166;2022-12-18T04:13:10;-0.50;1.00
6496;DHT22;3281;47.658;9.166;2022-12-18T04:15:38;-0.50;1.00
6496;DHT22;3281;47.658;9.166;2022-12-18T04:18:06;-0.50;1.00
6496;DHT22;3281;47.658;9.166;2022-12-18T04:20:32;-0.60;1.00
6496;DHT22;3281;47.658;9.166;2022-12-18T04:22:59;-0.60;1.00
6496;DHT22;3281;47.658;9.166;2022-12-18T04:25:26;-0.50;1.00
6496;DHT22;3281;47.658;9.166;2022-12-18T04:27:53;-0.40;1.00
6496;DHT22;3281;47.658;9.166;2022-12-18T04:30:19;-0.50;1.00
6496;DHT22;3281;47.658;9.166;2022-12-18T04:32:47;-0.40;1.00
6496;DHT22;3281;47.658;9.166;2022-12-18T04:35:14;-0.40;1.00
6496;DHT22;3281;47.658;9.166;2022-12-18T04:37:41;-0.50;1.00
6496;DHT22;3281;47.658;9.166;2022-12-18T04:40:08;-0.40;1.00
6496;DHT22;3281;47.658;9.166;2022-12-18T04:42:35;-0.40;1.00
6496;DHT22;3281;47.658;9.166;2022-12-18T04:45:03;-0.20;1.00
6496;DHT22;3281;47.658;9.166;2022-12-18T04:47:30;-0.30;1.00
6496;DHT22;3281;47.658;9.166;2022-12-18T04:49:58;-0.20;1.00
6496;DHT22;3281;47.658;9.166;2022-12-18T04:52:25;-0.20;1.00
6496;DHT22;3281;47.658;9.166;2022-12-18T04:54:52;-0.20;1.00
6496;DHT22;3281;47.658;9.166;2022-12-18T04:57:19;-0.20;1.00
6496;DHT22;3281;47.658;9.166;2022-12-18T04:59:46;-0.30;1.00
6496;DHT22;3281;47.658;9.166;2022-12-18T05:02:12;-0.30;1.00
6496;DHT22;3281;47.658;9.166;2022-12-18T05:04:39;-0.30;1.00
6496;DHT22;3281;47.658;9.166;2022-12-18T05:07:07;-0.20;1.00
6496;DHT22;3281;47.658;9.166;2022-12-18T05:09:34;-0.20;1.00
6496;DHT22;3281;47.658;9.166;2022-12-18T05:12:01;-0.20;1.00
6496;DHT22;3281;47.658;9.166;2022-12-18T05:14:27;-0.10;1.00
6496;DHT22;3281;47.658;9.166;2022-12-18T05:16:54;-0.20;1.00
6496;DHT22;3281;47.658;9.166;2022-12-18T05:19:21;-0.30;1.00
6496;DHT22;3281;47.658;9.166;2022-12-18T05:21:48;-0.30;1.00
6496;DHT22;3281;47.658;9.166;2022-12-18T05:24:16;-0.30;1.00
6496;DHT22;3281;47.658;9.166;2022-12-18T05:26:43;-0.20;1.00
6496;DHT22;3281;47.658;9.166;2022-12-18T05:29:09;-0.20;1.00
6496;DHT22;3281;47.658;9.166;2022-12-18T05:31:37;-0.20;1.00
6496;DHT22;3281;47.658;9.166;2022-12-18T05:34:04;-0.10;1.00
6496;DHT22;3281;47.658;9.166;2022-12-18T05:36:31;-0.20;1.00
6496;DHT22;3281;47.658;9.166;2022-12-18T05:38:58;-0.20;1.00
6496;DHT22;3281;47.658;9.166;2022-12-18T05:41:27;-0.20;1.00
6496;DHT22;3281;47.658;9.166;2022-12-18T05:43:54;-0.20;1.00
6496;DHT22;3281;47.658;9.166;2022-12-18T05:46:20;-0.10;1.00
6496;DHT22;3281;47.658;9.166;2022-12-18T05:48:47;-0.10;1.00
6496;DHT22;3281;47.658;9.166;2022-12-18T05:51:17;-0.10;1.00
6496;DHT22;3281;47.658;9.166;2022-12-18T05:53:45;0.00;1.00
6496;DHT22;3281;47.658;9.166;2022-12-18T05:56:14;-0.10;1.00
6496;DHT22;3281;47.658;9.166;2022-12-18T05:58:42;-0.10;1.00
6496;DHT22;3281;47.658;9.166;2022-12-18T06:01:11;-0.10;1.00
6496;DHT22;3281;47.658;9.166;2022-12-18T06:03:38;-0.10;1.00
6496;DHT22;3281;47.658;9.166;2022-12-18T06:06:13;0.00;1.00
6496;DHT22;3281;47.658;9.166;2022-12-18T06:08:40;0.00;1.00
6496;DHT22;3281;47.658;9.166;2022-12-18T06:11:06;-0.10;1.00
6496;DHT22;3281;47.658;9.166;2022-12-18T06:13:33;0.00;1.00
6496;DHT22;3281;47.658;9.166;2022-12-18T06:16:03;0.00;1.00
6496;DHT22;3281;47.658;9.166;2022-12-18T06:18:30;0.00;1.00
6496;DHT22;3281;47.658;9.166;2022-12-18T06:20:57;0.10;1.00
6496;DHT22;3281;47.658;9.166;2022-12-18T06:23:24;0.10;1.00
6496;DHT22;3281;47.658;9.166;2022-12-18T06:25:50;0.10;1.00
6496;DHT22;3281;47.658;9.166;2022-12-18T06:28:17;-0.10;1.00
6496;DHT22;3281;47.658;9.166;2022-12-18T06:30:44;0.00;1.00
6496;DHT22;3281;47.658;9.166;2022-12-18T06:33:13;0.00;1.00
6496;DHT22;3281;47.658;9.166;2022-12-18T06:35:39;0.00;1.00
6496;DHT22;3281;47.658;9.166;2022-12-18T06:38:07;0.10;1.00
6496;DHT22;3281;47.658;9.166;2022-12-18T06:40:34;0.20;1.00
6496;DHT22;3281;47.658;9.166;2022-12-18T06:43:00;0.20;1.00
6496;DHT22;3281;47.658;9.166;2022-12-18T06:45:27;0.20;1.00
6496;DHT22;3281;47.658;9.166;2022-12-18T06:47:54;0.10;1.00
6496;DHT22;3281;47.658;9.166;2022-12-18T06:50:22;0.10;1.00
6496;DHT22;3281;47.658;9.166;2022-12-18T06:52:48;0.10;1.00
6496;DHT22;3281;47.658;9.166;2022-12-18T06:55:15;0.10;1.00
6496;DHT22;3281;47.658;9.166;2022-12-18T06:57:42;0.10;1.00
6496;DHT22;3281;47.658;9.166;2022-12-18T07:00:09;0.10;1.00
6496;DHT22;3281;47.658;9.166;2022-12-18T07:02:36;0.20;1.00
6496;DHT22;3281;47.658;9.166;2022-12-18T07:05:04;0.20;1.00
6496;DHT22;3281;47.658;9.166;2022-12-18T07:07:33;0.20;1.00
6496;DHT22;3281;47.658;9.166;2022-12-18T07:09:59;0.10;1.00
6496;DHT22;3281;47.658;9.166;2022-12-18T07:12:26;0.30;1.00
6496;DHT22;3281;47.658;9.166;2022-12-18T07:14:53;0.30;1.00
6496;DHT22;3281;47.658;9.166;2022-12-18T07:17:20;0.30;1.00
6496;DHT22;3281;47.658;9.166;2022-12-18T07:19:46;0.20;1.00
6496;DHT22;3281;47.658;9.166;2022-12-18T07:22:13;0.20;1.00
6496;DHT22;3281;47.658;9.166;2022-12-18T07:24:41;0.20;1.00
6496;DHT22;3281;47.658;9.166;2022-12-18T07:27:08;0.20;1.00
6496;DHT22;3281;47.658;9.166;2022-12-18T07:29:34;0.10;1.00
6496;DHT22;3281;47.658;9.166;2022-12-18T07:32:01;0.10;1.00
6496;DHT22;3281;47.658;9.166;2022-12-18T07:34:28;0.00;1.00
6496;DHT22;3281;47.658;9.166;2022-12-18T07:36:55;0.10;1.00
6496;DHT22;3281;47.658;9.166;2022-12-18T07:39:21;0.10;1.00
6496;DHT22;3281;47.658;9.166;2022-12-18T07:41:49;0.20;1.00
6496;DHT22;3281;47.658;9.166;2022-12-18T07:44:30;0.10;1.00
6496;DHT22;3281;47.658;9.166;2022-12-18T07:46:57;0.10;1.00
6496;DHT22;3281;47.658;9.166;2022-12-18T07:49:23;0.10;1.00
6496;DHT22;3281;47.658;9.166;2022-12-18T07:51:50;0.10;1.00
6496;DHT22;3281;47.658;9.166;2022-12-18T07:54:17;0.10;1.00
6496;DHT22;3281;47.658;9.166;2022-12-18T07:56:44;0.20;1.00
6496;DHT22;3281;47.658;9.166;2022-12-18T07:59:12;0.20;1.00
6496;DHT22;3281;47.658;9.166;2022-12-18T08:01:38;0.20;1.00
6496;DHT22;3281;47.658;9.166;2022-12-18T08:04:05;0.30;1.00
6496;DHT22;3281;47.658;9.166;2022-12-18T08:06:32;0.30;1.00
6496;DHT22;3281;47.658;9.166;2022-12-18T08:08:58;0.30;1.00
6496;DHT22;3281;47.658;9.166;2022-12-18T08:11:26;0.40;1.00
6496;DHT22;3281;47.658;9.166;2022-12-18T08:13:54;0.30;1.00
6496;DHT22;3281;47.658;9.166;2022-12-18T08:16:22;0.40;1.00
6496;DHT22;3281;47.658;9.166;2022-12-18T08:18:51;0.30;1.00
6496;DHT22;3281;47.658;9.166;2022-12-18T08:21:19;0.30;1.00
6496;DHT22;3281;47.658;9.166;2022-12-18T08:23:48;0.30;1.00
6496;DHT22;3281;47.658;9.166;2022-12-18T08:26:15;0.40;1.00
6496;DHT22;3281;47.658;9.166;2022-12-18T08:28:43;0.40;1.00
6496;DHT22;3281;47.658;9.166;2022-12-18T08:31:10;0.30;1.00
6496;DHT22;3281;47.658;9.166;2022-12-18T08:33:39;0.40;1.00
6496;DHT22;3281;47.658;9.166;2022-12-18T08:36:08;0.50;1.00
6496;DHT22;3281;47.658;9.166;2022-12-18T08:38:35;0.40;1.00
6496;DHT22;3281;47.658;9.166;2022-12-18T08:41:03;0.40;1.00
6496;DHT22;3281;47.658;9.166;2022-12-18T08:43:30;0.30;1.00
6496;DHT22;3281;47.658;9.166;2022-12-18T08:46:15;0.40;1.00
6496;DHT22;3281;47.658;9.166;2022-12-18T08:48:43;0.30;1.00
6496;DHT22;3281;47.658;9.166;2022-12-18T08:51:10;0.60;1.00
6496;DHT22;3281;47.658;9.166;2022-12-18T08:53:37;0.50;1.00
6496;DHT22;3281;47.658;9.166;2022-12-18T08:56:05;0.40;1.00
6496;DHT22;3281;47.658;9.166;2022-12-18T08:58:32;0.40;1.00
6496;DHT22;3281;47.658;9.166;2022-12-18T09:01:00;0.30;1.00
6496;DHT22;3281;47.658;9.166;2022-12-18T09:03:27;0.30;1.00
6496;DHT22;3281;47.658;9.166;2022-12-18T09:05:55;0.20;1.00
6496;DHT22;3281;47.658;9.166;2022-12-18T09:08:22;0.40;1.00
6496;DHT22;3281;47.658;9.166;2022-12-18T09:10:49;0.40;1.00
6496;DHT22;3281;47.658;9.166;2022-12-18T09:13:17;0.50;1.00
6496;DHT22;3281;47.658;9.166;2022-12-18T09:15:46;0.40;1.00
6496;DHT22;3281;47.658;9.166;2022-12-18T09:18:15;0.50;1.00
6496;DHT22;3281;47.658;9.166;2022-12-18T09:20:42;0.30;1.00
6496;DHT22;3281;47.658;9.166;2022-12-18T09:23:11;0.50;1.00
6496;DHT22;3281;47.658;9.166;2022-12-18T09:25:38;0.50;1.00
6496;DHT22;3281;47.658;9.166;2022-12-18T09:28:09;0.30;1.00
6496;DHT22;3281;47.658;9.166;2022-12-18T09:30:37;0.50;1.00
6496;DHT22;3281;47.658;9.166;2022-12-18T09:33:04;0.50;1.00
6496;DHT22;3281;47.658;9.166;2022-12-18T09:35:31;0.50;1.00
6496;DHT22;3281;47.658;9.166;2022-12-18T09:37:57;0.50;1.00
6496;DHT22;3281;47.658;9.166;2022-12-18T09:40:30;0.50;1.00
6496;DHT22;3281;47.658;9.166;2022-12-18T09:43:02;0.50;1.00
6496;DHT22;3281;47.658;9.166;2022-12-18T09:45:40;0.60;1.00
6496;DHT22;3281;47.658;9.166;2022-12-18T09:48:10;0.50;1.00
6496;DHT22;3281;47.658;9.166;2022-12-18T09:50:42;0.50;1.00
6496;DHT22;3281;47.658;9.166;2022-12-18T09:53:14;0.60;1.00
6496;DHT22;3281;47.658;9.166;2022-12-18T09:55:45;0.50;1.00
6496;DHT22;3281;47.658;9.166;2022-12-18T09:58:16;0.60;1.00
6496;DHT22;3281;47.658;9.166;2022-12-18T10:00:45;0.70;1.00
6496;DHT22;3281;47.658;9.166;2022-12-18T10:03:13;0.60;1.00
6496;DHT22;3281;47.658;9.166;2022-12-18T10:05:44;0.80;1.00
6496;DHT22;3281;47.658;9.166;2022-12-18T10:08:20;0.70;1.00
6496;DHT22;3281;47.658;9.166;2022-12-18T10:10:51;0.70;1.00
6496;DHT22;3281;47.658;9.166;2022-12-18T10:13:24;0.60;1.00
6496;DHT22;3281;47.658;9.166;2022-12-18T10:16:05;0.60;1.00
6496;DHT22;3281;47.658;9.166;2022-12-18T10:18:55;0.70;1.00
6496;DHT22;3281;47.658;9.166;2022-12-18T10:21:28;0.50;1.00
6496;DHT22;3281;47.658;9.166;2022-12-18T10:24:02;0.70;1.00
6496;DHT22;3281;47.658;9.166;2022-12-18T10:26:34;0.70;1.00
6496;DHT22;3281;47.658;9.166;2022-12-18T10:29:01;0.90;1.00
6496;DHT22;3281;47.658;9.166;2022-12-18T10:31:28;1.00;1.00
6496;DHT22;3281;47.658;9.166;2022-12-18T10:33:55;1.00;1.00
6496;DHT22;3281;47.658;9.166;2022-12-18T10:36:23;0.90;1.00
6496;DHT22;3281;47.658;9.166;2022-12-18T10:38:49;0.90;1.00
6496;DHT22;3281;47.658;9.166;2022-12-18T10:41:25;0.70;1.00
6496;DHT22;3281;47.658;9.166;2022-12-18T10:44:11;0.90;1.00
6496;DHT22;3281;47.658;9.166;2022-12-18T10:46:39;0.80;1.00
6496;DHT22;3281;47.658;9.166;2022-12-18T10:49:07;0.80;1.00
6496;DHT22;3281;47.658;9.166;2022-12-18T10:51:44;0.90;1.00
6496;DHT22;3281;47.658;9.166;2022-12-18T10:54:15;0.70;1.00
6496;DHT22;3281;47.658;9.166;2022-12-18T10:56:44;0.60;1.00
6496;DHT22;3281;47.658;9.166;2022-12-18T10:59:14;0.70;1.00
6496;DHT22;3281;47.658;9.166;2022-12-18T11:01:51;0.60;1.00
6496;DHT22;3281;47.658;9.166;2022-12-18T11:04:21;0.40;1.00
6496;DHT22;3281;47.658;9.166;2022-12-18T11:06:58;0.40;1.00
6496;DHT22;3281;47.658;9.166;2022-12-18T11:09:29;0.50;1.00
6496;DHT22;3281;47.658;9.166;2022-12-18T11:11:58;0.50;1.00
6496;DHT22;3281;47.658;9.166;2022-12-18T11:14:29;0.50;1.00
6496;DHT22;3281;47.658;9.166;2022-12-18T11:16:59;0.60;1.00
6496;DHT22;3281;47.658;9.166;2022-12-18T11:19:31;0.60;1.00
6496;DHT22;3281;47.658;9.166;2022-12-18T11:22:00;0.70;1.00
6496;DHT22;3281;47.658;9.166;2022-12-18T11:24:30;0.50;1.00
6496;DHT22;3281;47.658;9.166;2022-12-18T11:26:58;0.50;1.00
6496;DHT22;3281;47.658;9.166;2022-12-18T11:29:33;0.70;1.00
6496;DHT22;3281;47.658;9.166;2022-12-18T11:32:25;0.60;1.00
6496;DHT22;3281;47.658;9.166;2022-12-18T11:34:59;0.70;1.00
6496;DHT22;3281;47.658;9.166;2022-12-18T11:37:27;0.70;1.00
6496;DHT22;3281;47.658;9.166;2022-12-18T11:39:57;0.70;1.00
6496;DHT22;3281;47.658;9.166;2022-12-18T11:42:31;0.80;1.00
6496;DHT22;3281;47.658;9.166;2022-12-18T11:45:08;0.90;1.00
6496;DHT22;3281;47.658;9.166;2022-12-18T11:47:49;0.80;1.00
6496;DHT22;3281;47.658;9.166;2022-12-18T11:50:23;0.90;1.00
6496;DHT22;3281;47.658;9.166;2022-12-18T11:52:50;0.90;1.00
6496;DHT22;3281;47.658;9.166;2022-12-18T11:55:30;1.10;1.00
6496;DHT22;3281;47.658;9.166;2022-12-18T11:58:03;1.00;1.00
6496;DHT22;3281;47.658;9.166;2022-12-18T12:00:35;1.00;1.00
6496;DHT22;3281;47.658;9.166;2022-12-18T12:03:22;0.90;1.00
6496;DHT22;3281;47.658;9.166;2022-12-18T12:06:00;0.80;1.00
6496;DHT22;3281;47.658;9.166;2022-12-18T12:08:36;0.90;1.00
6496;DHT22;3281;47.658;9.166;2022-12-18T12:11:09;0.80;1.00
6496;DHT22;3281;47.658;9.166;2022-12-18T12:13:47;0.80;1.00
6496;DHT22;3281;47.658;9.166;2022-12-18T12:16:21;0.90;1.00
6496;DHT22;3281;47.658;9.166;2022-12-18T12:19:03;0.90;1.00
6496;DHT22;3281;47.658;9.166;2022-12-18T12:21:38;1.00;1.00
6496;DHT22;3281;47.658;9.166;2022-12-18T12:24:19;1.00;1.00
6496;DHT22;3281;47.658;9.166;2022-12-18T12:26:56;1.10;1.00
6496;DHT22;3281;47.658;9.166;2022-12-18T12:29:34;0.80;1.00
6496;DHT22;3281;47.658;9.166;2022-12-18T12:32:12;1.00;1.00
6496;DHT22;3281;47.658;9.166;2022-12-18T12:34:50;1.00;1.00
6496;DHT22;3281;47.658;9.166;2022-12-18T12:37:25;1.10;1.00
6496;DHT22;3281;47.658;9.166;2022-12-18T12:39:55;1.00;1.00
6496;DHT22;3281;47.658;9.166;2022-12-18T12:42:29;0.80;1.00
6496;DHT22;3281;47.658;9.166;2022-12-18T12:45:18;0.90;1.00
6496;DHT22;3281;47.658;9.166;2022-12-18T12:47:49;1.00;1.00
6496;DHT22;3281;47.658;9.166;2022-12-18T12:50:19;1.10;1.00
6496;DHT22;3281;47.658;9.166;2022-12-18T12:52:48;1.10;1.00
6496;DHT22;3281;47.658;9.166;2022-12-18T12:55:19;1.30;1.00
6496;DHT22;3281;47.658;9.166;2022-12-18T12:57:55;1.30;1.00
6496;DHT22;3281;47.658;9.166;2022-12-18T13:00:26;1.10;1.00
6496;DHT22;3281;47.658;9.166;2022-12-18T13:03:01;1.10;1.00
6496;DHT22;3281;47.658;9.166;2022-12-18T13:05:39;1.00;1.00
6496;DHT22;3281;47.658;9.166;2022-12-18T13:08:08;1.00;1.00
6496;DHT22;3281;47.658;9.166;2022-12-18T13:10:37;1.00;1.00
6496;DHT22;3281;47.658;9.166;2022-12-18T13:13:06;1.00;1.00
6496;DHT22;3281;47.658;9.166;2022-12-18T13:15:37;1.10;1.00
6496;DHT22;3281;47.658;9.166;2022-12-18T13:18:13;1.10;1.00
6496;DHT22;3281;47.658;9.166;2022-12-18T13:20:42;1.00;1.00
6496;DHT22;3281;47.658;9.166;2022-12-18T13:23:34;1.00;1.00
6496;DHT22;3281;47.658;9.166;2022-12-18T13:26:30;1.00;1.00
6496;DHT22;3281;47.658;9.166;2022-12-18T13:28:59;1.00;1.00
6496;DHT22;3281;47.658;9.166;2022-12-18T13:34:35;1.10;1.00
6496;DHT22;3281;47.658;9.166;2022-12-18T13:43:21;1.20;1.00
6496;DHT22;3281;47.658;9.166;2022-12-18T13:46:00;1.10;1.00
6496;DHT22;3281;47.658;9.166;2022-12-18T13:48:30;1.20;1.00
6496;DHT22;3281;47.658;9.166;2022-12-18T13:51:01;1.00;1.00
6496;DHT22;3281;47.658;9.166;2022-12-18T13:53:33;1.00;1.00
6496;DHT22;3281;47.658;9.166;2022-12-18T13:56:02;1.10;1.00
6496;DHT22;3281;47.658;9.166;2022-12-18T13:58:29;1.00;1.00
6496;DHT22;3281;47.658;9.166;2022-12-18T14:00:56;1.00;1.00
6496;DHT22;3281;47.658;9.166;2022-12-18T14:03:25;1.00;1.00
6496;DHT22;3281;47.658;9.166;2022-12-18T14:05:55;1.00;1.00
6496;DHT22;3281;47.658;9.166;2022-12-18T14:08:32;1.00;1.00
6496;DHT22;3281;47.658;9.166;2022-12-18T14:11:00;0.80;1.00
6496;DHT22;3281;47.658;9.166;2022-12-18T14:13:30;0.90;1.00
6496;DHT22;3281;47.658;9.166;2022-12-18T14:15:57;0.90;1.00
6496;DHT22;3281;47.658;9.166;2022-12-18T14:18:31;0.80;1.00
6496;DHT22;3281;47.658;9.166;2022-12-18T14:21:02;0.90;1.00
6496;DHT22;3281;47.658;9.166;2022-12-18T14:23:33;0.80;1.00
6496;DHT22;3281;47.658;9.166;2022-12-18T14:26:01;0.80;1.00
6496;DHT22;3281;47.658;9.166;2022-12-18T14:28:28;0.90;1.00
6496;DHT22;3281;47.658;9.166;2022-12-18T14:30:55;0.90;1.00
6496;DHT22;3281;47.658;9.166;2022-12-18T14:33:23;0.80;1.00
6496;DHT22;3281;47.658;9.166;2022-12-18T14:35:56;0.80;1.00
6496;DHT22;3281;47.658;9.166;2022-12-18T14:38:27;0.80;1.00
6496;DHT22;3281;47.658;9.166;2022-12-18T14:41:05;0.80;1.00
6496;DHT22;3281;47.658;9.166;2022-12-18T14:43:33;0.70;1.00
6496;DHT22;3281;47.658;9.166;2022-12-18T14:46:01;0.70;1.00
6496;DHT22;3281;47.658;9.166;2022-12-18T14:48:35;0.70;1.00
6496;DHT22;3281;47.658;9.166;2022-12-18T14:51:04;0.70;1.00
6496;DHT22;3281;47.658;9.166;2022-12-18T14:53:39;0.80;1.00
6496;DHT22;3281;47.658;9.166;2022-12-18T14:56:21;0.80;1.00
6496;DHT22;3281;47.658;9.166;2022-12-18T14:58:50;0.80;1.00
6496;DHT22;3281;47.658;9.166;2022-12-18T15:01:23;0.70;1.00
6496;DHT22;3281;47.658;9.166;2022-12-18T15:03:51;0.80;1.00
6496;DHT22;3281;47.658;9.166;2022-12-18T15:06:26;0.70;1.00
6496;DHT22;3281;47.658;9.166;2022-12-18T15:08:53;0.80;1.00
6496;DHT22;3281;47.658;9.166;2022-12-18T15:11:27;0.90;1.00
6496;DHT22;3281;47.658;9.166;2022-12-18T15:13:57;0.80;1.00
6496;DHT22;3281;47.658;9.166;2022-12-18T15:16:23;0.90;1.00
6496;DHT22;3281;47.658;9.166;2022-12-18T15:18:50;0.90;1.00
6496;DHT22;3281;47.658;9.166;2022-12-18T15:21:18;0.80;1.00
6496;DHT22;3281;47.658;9.166;2022-12-18T15:23:48;0.60;1.00
6496;DHT22;3281;47.658;9.166;2022-12-18T15:26:16;0.60;1.00
6496;DHT22;3281;47.658;9.166;2022-12-18T15:28:46;0.70;1.00
6496;DHT22;3281;47.658;9.166;2022-12-18T15:31:29;0.60;1.00
6496;DHT22;3281;47.658;9.166;2022-12-18T15:34:05;0.70;1.00
6496;DHT22;3281;47.658;9.166;2022-12-18T15:36:35;0.70;1.00
6496;DHT22;3281;47.658;9.166;2022-12-18T15:39:03;0.70;1.00
6496;DHT22;3281;47.658;9.166;2022-12-18T15:41:32;0.60;1.00
6496;DHT22;3281;47.658;9.166;2022-12-18T15:44:01;0.60;1.00
6496;DHT22;3281;47.658;9.166;2022-12-18T15:46:26;0.60;1.00
6496;DHT22;3281;47.658;9.166;2022-12-18T15:48:54;0.60;1.00
6496;DHT22;3281;47.658;9.166;2022-12-18T15:51:23;0.60;1.00
6496;DHT22;3281;47.658;9.166;2022-12-18T15:53:53;0.60;1.00
6496;DHT22;3281;47.658;9.166;2022-12-18T15:56:21;0.60;1.00
6496;DHT22;3281;47.658;9.166;2022-12-18T15:59:11;0.60;1.00
6496;DHT22;3281;47.658;9.166;2022-12-18T16:01:39;0.50;1.00
6496;DHT22;3281;47.658;9.166;2022-12-18T16:04:06;0.60;1.00
6496;DHT22;3281;47.658;9.166;2022-12-18T16:06:32;0.70;1.00
6496;DHT22;3281;47.658;9.166;2022-12-18T16:08:59;0.70;1.00
6496;DHT22;3281;47.658;9.166;2022-12-18T16:11:28;0.80;1.00
6496;DHT22;3281;47.658;9.166;2022-12-18T16:14:07;0.80;1.00
6496;DHT22;3281;47.658;9.166;2022-12-18T16:16:38;0.70;1.00
6496;DHT22;3281;47.658;9.166;2022-12-18T16:19:05;0.70;1.00
6496;DHT22;3281;47.658;9.166;2022-12-18T16:21:32;0.60;1.00
6496;DHT22;3281;47.658;9.166;2022-12-18T16:23:58;0.70;1.00
6496;DHT22;3281;47.658;9.166;2022-12-18T16:26:25;0.80;1.00
6496;DHT22;3281;47.658;9.166;2022-12-18T16:28:52;0.70;1.00
6496;DHT22;3281;47.658;9.166;2022-12-18T16:31:19;0.60;1.00
6496;DHT22;3281;47.658;9.166;2022-12-18T16:33:47;0.60;1.00
6496;DHT22;3281;47.658;9.166;2022-12-18T16:36:14;0.70;1.00
6496;DHT22;3281;47.658;9.166;2022-12-18T16:38:41;0.70;1.00
6496;DHT22;3281;47.658;9.166;2022-12-18T16:41:17;0.60;1.00
6496;DHT22;3281;47.658;9.166;2022-12-18T16:44:01;0.70;1.00
6496;DHT22;3281;47.658;9.166;2022-12-18T16:46:27;0.60;1.00
6496;DHT22;3281;47.658;9.166;2022-12-18T16:48:56;0.70;1.00
6496;DHT22;3281;47.658;9.166;2022-12-18T16:51:23;0.60;1.00
6496;DHT22;3281;47.658;9.166;2022-12-18T16:53:50;0.50;1.00
6496;DHT22;3281;47.658;9.166;2022-12-18T16:56:17;0.70;1.00
6496;DHT22;3281;47.658;9.166;2022-12-18T16:58:44;0.70;1.00